Time;durP1;ratioP1;P1;durP2;ratioP2;P2;SDS_P1;SDS_P2;PMS_P1;PMS_P2;Temp;Humidity;BMP_temperature;BMP_pressure;BME280_temperature;BME280_humidity;BME280_pressure;Samples;Min_cycle;Max_cycle;Signal;HPM_P1;HPM_P2
2023/03/30 00:01:53;;;;;;;4.32;2.90;;;13.70;89.90;;;;;;5076209;28;20029;-74
2023/03/30 00:04:21;;;;;;;4.78;2.83;;;13.70;90.10;;;;;;5075156;28;20033;-74
2023/03/30 00:06:48;;;;;;;7.40;2.78;;;13.70;90.50;;;;;;5075244;28;20021;-74
2023/03/30 00:09:14;;;;;;;7.20;2.60;;;13.70;90.20;;;;;;5076066;28;20029;-74
2023/03/30 00:11:40;;;;;;;7.22;2.75;;;13.70;90.40;;;;;;5075063;28;20025;-74
2023/03/30 00:14:06;;;;;;;6.97;2.40;;;13.70;90.00;;;;;;5075111;28;20089;-74
2023/03/30 00:16:31;;;;;;;6.28;2.72;;;13.70;90.30;;;;;;5058271;28;20082;-74
2023/03/30 00:18:57;;;;;;;6.53;2.55;;;13.80;90.20;;;;;;5075012;28;20029;-74
2023/03/30 00:21:22;;;;;;;4.85;2.60;;;13.80;90.20;;;;;;5074881;28;20025;-74
2023/03/30 00:23:50;;;;;;;5.35;2.58;;;13.70;90.20;;;;;;5075705;28;20024;-74
2023/03/30 00:26:16;;;;;;;4.13;2.33;;;13.70;89.90;;;;;;5075703;28;20044;-74
2023/03/30 00:28:42;;;;;;;5.20;2.22;;;13.80;89.10;;;;;;5058188;28;20025;-74
2023/03/30 00:31:09;;;;;;;4.88;2.25;;;13.80;88.90;;;;;;5075663;28;20032;-74
2023/03/30 00:33:35;;;;;;;4.88;2.58;;;13.70;89.20;;;;;;5075593;28;20025;-74
2023/03/30 00:36:01;;;;;;;3.85;2.33;;;13.80;89.00;;;;;;5074554;28;20021;-74
2023/03/30 00:38:28;;;;;;;3.90;2.10;;;13.80;88.80;;;;;;5074618;28;20025;-74
2023/03/30 00:40:57;;;;;;;5.13;2.30;;;13.80;88.70;;;;;;5075460;28;20021;-74
2023/03/30 00:43:25;;;;;;;4.45;2.40;;;13.80;88.90;;;;;;5075208;28;20045;-74
2023/03/30 00:45:51;;;;;;;6.53;2.60;;;13.80;89.00;;;;;;5075453;28;20017;-74
2023/03/30 00:48:33;;;;;;;5.78;2.30;;;13.80;88.80;;;;;;5074380;28;20017;-74
2023/03/30 00:51:10;;;;;;;6.00;2.50;;;13.90;88.30;;;;;;5074365;28;20017;-74
2023/03/30 00:53:42;;;;;;;6.07;2.33;;;13.80;88.30;;;;;;5057724;28;20039;-75
2023/03/30 00:56:11;;;;;;;6.63;2.35;;;13.80;88.30;;;;;;5075223;28;20025;-74
2023/03/30 00:58:40;;;;;;;3.60;2.15;;;13.80;88.00;;;;;;5075139;28;20021;-74
2023/03/30 01:01:09;;;;;;;4.28;2.13;;;13.80;87.20;;;;;;5075070;28;20025;-74
2023/03/30 01:03:58;;;;;;;4.32;2.03;;;13.80;87.30;;;;;;5073947;28;20025;-74
2023/03/30 01:06:28;;;;;;;3.53;2.30;;;13.80;87.50;;;;;;5075023;28;20021;-74
2023/03/30 01:08:56;;;;;;;4.10;1.92;;;13.80;87.60;;;;;;5074139;28;20032;-74
2023/03/30 01:11:23;;;;;;;6.22;2.20;;;13.80;87.40;;;;;;5073884;28;20056;-74
2023/03/30 01:14:01;;;;;;;6.88;2.92;;;13.70;87.60;;;;;;5074884;28;20447;-74
2023/03/30 01:16:30;;;;;;;4.30;2.30;;;13.80;87.70;;;;;;5074839;28;20025;-74
2023/03/30 01:19:42;;;;;;;5.65;2.50;;;13.80;87.00;;;;;;5074747;28;20036;-74
2023/03/30 01:22:39;;;;;;;5.32;2.20;;;13.70;87.20;;;;;;5073713;28;20029;-74
2023/03/30 01:25:27;;;;;;;3.65;1.80;;;13.70;87.40;;;;;;5073611;28;20124;-74
2023/03/30 01:28:10;;;;;;;3.97;1.95;;;13.70;87.60;;;;;;5074507;28;20021;-74
2023/03/30 01:30:54;;;;;;;;;;;13.70;87.70;;;;;;5073931;28;20096;-74
2023/03/30 01:33:44;;;;;;;5.82;2.30;;;13.70;87.30;;;;;;5074487;28;19905;-74
2023/03/30 01:36:35;;;;;;;4.40;1.95;;;13.60;87.50;;;;;;5074467;28;20055;-74
2023/03/30 01:39:32;;;;;;;5.38;1.90;;;13.60;87.80;;;;;;5073349;28;20036;-74
2023/03/30 01:42:10;;;;;;;6.30;2.30;;;13.60;87.90;;;;;;5070292;28;20041;-74
2023/03/30 01:45:05;;;;;;;6.10;2.10;;;13.60;87.90;;;;;;5073005;28;20037;-74
2023/03/30 01:47:57;;;;;;;5.82;2.58;;;13.60;87.80;;;;;;5074254;28;20036;-74
2023/03/30 01:50:41;;;;;;;5.43;2.70;;;13.60;88.10;;;;;;5035362;28;20029;-74
2023/03/30 01:53:21;;;;;;;5.13;2.00;;;13.60;88.10;;;;;;5074286;28;20248;-74
2023/03/30 01:55:54;;;;;;;5.43;2.20;;;13.60;88.40;;;;;;5073300;28;20059;-74
2023/03/30 01:58:36;;;;;;;3.53;2.20;;;13.60;88.20;;;;;;5073076;28;20025;-74
2023/03/30 02:01:05;;;;;;;5.55;2.22;;;13.60;88.40;;;;;;5074002;28;20033;-74
2023/03/30 02:03:33;;;;;;;4.55;2.17;;;13.60;88.30;;;;;;5072808;28;20100;-74
2023/03/30 02:06:05;;;;;;;5.40;2.38;;;13.60;88.40;;;;;;5073879;28;20044;-74
2023/03/30 02:08:33;;;;;;;4.32;1.75;;;13.60;88.20;;;;;;5072828;28;20025;-75
2023/03/30 02:11:00;;;;;;;4.38;1.83;;;13.70;88.00;;;;;;5072871;28;20040;-74
2023/03/30 02:13:28;;;;;;;7.95;1.98;;;13.70;87.30;;;;;;5072887;28;20036;-75
2023/03/30 02:16:02;;;;;;;4.55;1.42;;;13.80;87.10;;;;;;5073725;28;20074;-74
2023/03/30 02:18:28;;;;;;;3.75;1.50;;;13.90;86.30;;;;;;5073690;28;20080;-74
2023/03/30 02:20:57;;;;;;;3.40;1.48;;;14.00;86.50;;;;;;5073492;28;20033;-74
2023/03/30 02:23:28;;;;;;;3.47;1.58;;;14.10;85.90;;;;;;5072582;28;20025;-74
2023/03/30 02:25:55;;;;;;;4.30;1.88;;;14.20;85.40;;;;;;5073546;28;20017;-74
2023/03/30 02:28:21;;;;;;;3.80;1.88;;;14.30;85.00;;;;;;5073501;28;20067;-74
2023/03/30 02:30:46;;;;;;;4.78;1.58;;;14.40;85.20;;;;;;5073453;28;20024;-75
2023/03/30 02:33:49;;;;;;;3.67;2.00;;;14.40;85.00;;;;;;5073395;28;20029;-74
2023/03/30 02:36:40;;;;;;;4.47;1.88;;;14.40;84.70;;;;;;5073534;28;20032;-74
2023/03/30 02:39:29;;;;;;;2.13;1.48;;;14.40;84.80;;;;;;5073487;28;20088;-75
2023/03/30 02:42:21;;;;;;;2.22;1.63;;;14.40;84.70;;;;;;5072312;28;20496;-74
2023/03/30 02:44:50;;;;;;;3.20;1.70;;;14.30;84.60;;;;;;5072044;28;20048;-74
2023/03/30 02:47:51;;;;;;;2.78;1.52;;;14.30;84.90;;;;;;5073373;28;20021;-74
2023/03/30 02:50:20;;;;;;;5.65;2.15;;;14.20;85.20;;;;;;5071592;28;20040;-74
2023/03/30 02:53:05;;;;;;;5.30;1.70;;;14.20;85.20;;;;;;5072201;28;20020;-74
2023/03/30 02:56:02;;;;;;;6.80;1.80;;;14.10;85.40;;;;;;5073302;28;20040;-74
2023/03/30 02:58:53;;;;;;;4.53;1.30;;;14.00;85.40;;;;;;5073312;28;20032;-74
2023/03/30 03:01:27;;;;;;;3.38;1.40;;;14.00;85.90;;;;;;5072167;28;20040;-74
2023/03/30 03:03:57;;;;;;;4.00;2.33;;;13.90;86.10;;;;;;5073047;28;20096;-74
2023/03/30 03:06:23;;;;;;;3.50;1.88;;;13.90;86.70;;;;;;5072101;28;20025;-74
2023/03/30 03:08:49;;;;;;;5.05;2.03;;;13.80;87.10;;;;;;5072097;28;20043;-74
2023/03/30 03:11:15;;;;;;;4.40;1.77;;;13.90;87.30;;;;;;5072997;28;20033;-74
2023/03/30 03:13:41;;;;;;;3.33;1.80;;;13.80;87.00;;;;;;5055538;28;20025;-74
2023/03/30 03:16:12;;;;;;;16.33;2.70;;;13.90;87.30;;;;;;5072937;28;20033;-74
2023/03/30 03:18:41;;;;;;;5.38;2.38;;;13.90;88.00;;;;;;5072999;28;20079;-74
2023/03/30 03:21:08;;;;;;;4.57;1.77;;;13.90;87.00;;;;;;5071881;28;20041;-74
2023/03/30 03:23:35;;;;;;;2.92;2.05;;;13.90;87.00;;;;;;5071775;28;20095;-74
2023/03/30 03:26:01;;;;;;;4.40;2.15;;;14.00;86.80;;;;;;5072787;28;20402;-74
2023/03/30 03:28:28;;;;;;;4.30;1.98;;;14.00;86.90;;;;;;5071809;28;20108;-74
2023/03/30 03:30:57;;;;;;;7.75;2.13;;;14.00;87.10;;;;;;5071887;28;20029;-74
2023/03/30 03:33:22;;;;;;;5.60;1.80;;;14.00;87.10;;;;;;5075628;28;20021;-74
2023/03/30 03:35:52;;;;;;;4.85;1.90;;;14.00;86.90;;;;;;5059046;28;20029;-74
2023/03/30 03:38:20;;;;;;;4.30;2.22;;;14.00;87.00;;;;;;5076803;28;20044;-74
2023/03/30 03:40:50;;;;;;;3.13;1.63;;;14.10;86.70;;;;;;5075711;28;20055;-74
2023/03/30 03:43:17;;;;;;;3.97;1.55;;;14.10;86.80;;;;;;5076236;28;20045;-75
2023/03/30 03:45:47;;;;;;;3.65;1.52;;;14.10;86.20;;;;;;5058870;28;20112;-74
2023/03/30 03:48:17;;;;;;;4.88;1.50;;;14.20;85.30;;;;;;5058851;28;20036;-75
2023/03/30 03:50:44;;;;;;;4.18;1.52;;;14.30;85.40;;;;;;5076467;28;20482;-74
2023/03/30 03:53:10;;;;;;;3.35;1.38;;;14.30;85.40;;;;;;5076381;28;20029;-74
2023/03/30 03:55:36;;;;;;;4.18;1.30;;;14.30;85.60;;;;;;5075417;28;20044;-74
2023/03/30 03:58:06;;;;;;;3.33;1.83;;;14.30;85.60;;;;;;5075323;28;20032;-73
2023/03/30 04:00:32;;;;;;;4.55;1.50;;;14.30;85.80;;;;;;5076271;28;20440;-74
2023/03/30 04:02:59;;;;;;;3.28;1.52;;;14.30;85.90;;;;;;5076143;28;20032;-74
2023/03/30 04:05:25;;;;;;;2.67;1.40;;;14.30;85.90;;;;;;5058601;28;20021;-74
2023/03/30 04:07:52;;;;;;;3.45;1.50;;;14.40;86.20;;;;;;5076234;28;20037;-74
2023/03/30 04:10:18;;;;;;;4.35;1.60;;;14.30;85.60;;;;;;5076095;28;20032;-74
2023/03/30 04:12:44;;;;;;;2.78;1.70;;;14.30;86.60;;;;;;5076167;28;20052;-74
2023/03/30 04:15:10;;;;;;;3.97;1.58;;;14.30;86.20;;;;;;5075020;28;20021;-75
2023/03/30 04:17:36;;;;;;;3.42;1.60;;;14.20;86.00;;;;;;5075952;28;20036;-74
2023/03/30 04:20:04;;;;;;;4.28;1.88;;;14.20;86.10;;;;;;5075006;28;20040;-74
2023/03/30 04:22:32;;;;;;;4.38;1.65;;;14.20;86.30;;;;;;5058276;28;20044;-74
2023/03/30 04:25:05;;;;;;;2.55;1.27;;;14.20;86.40;;;;;;5075744;28;20025;-74
2023/03/30 04:27:31;;;;;;;2.58;1.30;;;14.20;86.40;;;;;;5074726;28;20029;-74
2023/03/30 04:29:57;;;;;;;2.95;1.52;;;14.20;85.60;;;;;;5075707;28;20032;-74
2023/03/30 04:32:26;;;;;;;3.28;1.33;;;14.20;85.80;;;;;;5074759;28;20025;-74
2023/03/30 04:34:54;;;;;;;4.40;1.75;;;14.30;85.30;;;;;;5075620;28;20033;-74
2023/03/30 04:37:22;;;;;;;2.47;1.30;;;14.30;84.90;;;;;;5058418;28;20036;-75
2023/03/30 04:39:49;;;;;;;3.50;1.65;;;14.30;84.60;;;;;;5075537;28;20025;-75
2023/03/30 04:42:18;;;;;;;3.70;1.27;;;14.30;84.70;;;;;;5074569;28;20025;-75
2023/03/30 04:44:45;;;;;;;3.42;1.52;;;14.30;84.50;;;;;;5073908;28;20044;-75
2023/03/30 04:47:11;;;;;;;3.42;1.50;;;14.30;84.40;;;;;;5074511;28;20055;-74
2023/03/30 04:49:36;;;;;;;2.70;1.30;;;14.30;84.50;;;;;;5075315;28;20025;-74
2023/03/30 04:52:02;;;;;;;4.88;1.40;;;14.30;84.40;;;;;;5057765;28;20097;-75
2023/03/30 04:54:27;;;;;;;3.58;1.48;;;14.30;84.40;;;;;;5075180;28;20033;-74
2023/03/30 04:56:53;;;;;;;3.15;1.10;;;14.30;84.20;;;;;;5074230;28;20059;-75
2023/03/30 04:59:19;;;;;;;3.90;1.73;;;14.30;84.50;;;;;;5074270;28;20029;-74
2023/03/30 05:01:44;;;;;;;3.72;1.40;;;14.40;84.60;;;;;;5074203;28;20044;-75
2023/03/30 05:04:10;;;;;;;2.40;1.33;;;14.30;84.40;;;;;;5074051;28;20037;-74
2023/03/30 05:06:35;;;;;;;3.80;1.23;;;14.30;84.70;;;;;;5074017;28;20032;-74
2023/03/30 05:09:01;;;;;;;4.63;1.40;;;14.40;84.80;;;;;;5073944;28;20455;-75
2023/03/30 05:11:27;;;;;;;2.92;1.33;;;14.40;84.70;;;;;;5057257;28;20025;-75
2023/03/30 05:13:53;;;;;;;3.58;1.63;;;14.30;84.80;;;;;;5073972;28;20494;-74
2023/03/30 05:16:20;;;;;;;5.97;1.70;;;14.40;84.90;;;;;;5073886;28;20044;-74
2023/03/30 05:18:46;;;;;;;7.53;1.83;;;14.40;85.10;;;;;;5074802;28;20033;-74
2023/03/30 05:21:11;;;;;;;4.70;1.60;;;14.40;85.20;;;;;;5074710;28;20044;-74
2023/03/30 05:23:38;;;;;;;4.82;1.85;;;14.40;85.30;;;;;;5057074;28;20025;-75
2023/03/30 05:26:05;;;;;;;5.65;1.55;;;14.40;85.40;;;;;;5073691;28;20037;-74
2023/03/30 05:28:31;;;;;;;3.60;1.77;;;14.40;85.80;;;;;;5073561;28;20081;-75
2023/03/30 05:30:57;;;;;;;5.00;1.80;;;14.30;86.90;;;;;;5074573;28;20039;-74
2023/03/30 05:33:23;;;;;;;6.40;1.88;;;14.20;89.60;;;;;;5074494;28;20029;-75
2023/03/30 05:35:49;;;;;;;2.33;1.80;;;14.10;90.40;;;;;;5074399;28;20036;-74
2023/03/30 05:38:16;;;;;;;3.65;1.73;;;14.00;91.00;;;;;;5073387;28;20032;-75
2023/03/30 05:40:42;;;;;;;3.70;2.13;;;14.00;91.50;;;;;;5074228;28;20037;-74
2023/03/30 05:43:07;;;;;;;5.47;2.45;;;13.90;92.10;;;;;;5056587;28;20041;-74
2023/03/30 05:45:33;;;;;;;5.57;2.65;;;13.80;92.40;;;;;;5056506;28;20044;-74
2023/03/30 05:47:59;;;;;;;5.03;2.10;;;13.80;92.90;;;;;;5073244;28;20031;-74
2023/03/30 05:50:25;;;;;;;6.20;2.25;;;13.70;93.20;;;;;;5073167;28;20044;-75
2023/03/30 05:52:51;;;;;;;7.82;3.20;;;13.60;93.40;;;;;;5074118;28;20025;-74
2023/03/30 05:55:16;;;;;;;6.00;2.70;;;13.60;93.90;;;;;;5056192;28;20057;-76
2023/03/30 05:57:42;;;;;;;4.28;2.20;;;13.50;94.30;;;;;;5074025;28;20037;-75
2023/03/30 06:00:09;;;;;;;6.03;2.53;;;13.40;94.30;;;;;;5073062;28;20017;-75
2023/03/30 06:02:35;;;;;;;4.88;2.33;;;13.40;94.80;;;;;;5073119;28;20021;-74
2023/03/30 06:05:01;;;;;;;4.72;2.28;;;13.40;94.90;;;;;;5073814;28;20118;-74
2023/03/30 06:07:28;;;;;;;3.65;1.95;;;13.40;94.70;;;;;;5072909;28;20032;-75
2023/03/30 06:09:54;;;;;;;4.15;2.03;;;13.30;95.30;;;;;;5073839;28;20017;-74
2023/03/30 06:12:20;;;;;;;8.93;2.20;;;13.30;95.40;;;;;;5073793;28;20048;-74
2023/03/30 06:14:45;;;;;;;5.13;2.00;;;13.20;95.60;;;;;;5073712;28;20029;-74
2023/03/30 06:17:12;;;;;;;5.80;2.17;;;13.20;95.80;;;;;;5073686;28;20033;-75
2023/03/30 06:19:38;;;;;;;7.07;2.25;;;13.20;95.90;;;;;;5056266;28;20025;-75
2023/03/30 06:22:04;;;;;;;7.43;2.30;;;13.20;95.80;;;;;;5072670;28;20067;-74
2023/03/30 06:24:30;;;;;;;6.55;2.47;;;13.20;95.70;;;;;;5072621;28;20025;-75
2023/03/30 06:26:56;;;;;;;5.97;2.35;;;13.20;95.70;;;;;;5073459;28;20077;-75
2023/03/30 06:29:22;;;;;;;5.35;1.77;;;13.20;95.80;;;;;;5073619;28;20483;-74
2023/03/30 06:31:47;;;;;;;4.03;1.90;;;13.10;95.90;;;;;;5073443;28;20024;-75
2023/03/30 06:34:13;;;;;;;6.10;2.05;;;13.10;96.10;;;;;;5073446;28;20056;-74
2023/03/30 06:36:38;;;;;;;5.55;2.55;;;13.10;96.30;;;;;;5072352;28;20029;-75
2023/03/30 06:39:04;;;;;;;4.57;2.28;;;13.00;96.70;;;;;;5073286;28;20033;-74
2023/03/30 06:41:30;;;;;;;5.80;2.35;;;13.00;96.70;;;;;;5072534;28;20036;-74
2023/03/30 06:43:56;;;;;;;5.03;2.25;;;12.90;96.90;;;;;;5073017;28;20055;-75
2023/03/30 06:46:21;;;;;;;7.45;2.50;;;12.90;96.80;;;;;;5072266;28;20040;-74
2023/03/30 06:48:47;;;;;;;5.57;2.35;;;12.90;96.70;;;;;;5055637;28;20533;-74
2023/03/30 06:51:13;;;;;;;6.72;2.15;;;13.00;96.30;;;;;;5072254;28;20045;-74
2023/03/30 06:53:39;;;;;;;7.65;2.50;;;12.90;96.30;;;;;;5072250;28;20025;-75
2023/03/30 06:56:06;;;;;;;7.07;2.00;;;12.90;96.00;;;;;;5072025;28;20029;-76
2023/03/30 06:58:33;;;;;;;7.30;1.83;;;13.00;95.90;;;;;;5072206;28;20029;-75
2023/03/30 07:01:06;;;;;;;7.18;2.15;;;13.00;95.70;;;;;;5073113;28;20093;-75
2023/03/30 07:03:32;;;;;;;6.93;2.30;;;13.00;95.60;;;;;;5072004;28;20025;-75
2023/03/30 07:05:58;;;;;;;5.13;1.88;;;13.00;95.90;;;;;;5072227;28;20112;-76
2023/03/30 07:08:23;;;;;;;5.63;2.10;;;13.10;95.80;;;;;;5075959;28;20071;-74
2023/03/30 07:10:50;;;;;;;7.47;2.03;;;13.10;95.70;;;;;;5077183;28;20056;-75
2023/03/30 07:13:16;;;;;;;5.13;1.65;;;13.10;95.70;;;;;;5076240;28;20053;-75
2023/03/30 07:15:42;;;;;;;10.30;2.20;;;13.10;95.30;;;;;;5076110;28;20021;-76
2023/03/30 07:18:08;;;;;;;7.55;1.90;;;13.10;95.40;;;;;;5076170;28;20057;-74
2023/03/30 07:20:34;;;;;;;6.53;2.20;;;13.00;95.20;;;;;;5077023;28;20044;-75
2023/03/30 07:23:01;;;;;;;8.88;2.40;;;13.10;95.40;;;;;;5076894;28;20107;-75
2023/03/30 07:25:27;;;;;;;3.88;2.10;;;13.10;95.30;;;;;;5075881;28;20051;-74
2023/03/30 07:27:52;;;;;;;6.70;2.08;;;13.10;95.20;;;;;;5076823;28;20033;-75
2023/03/30 07:30:21;;;;;;;5.75;1.83;;;13.10;95.20;;;;;;5076952;28;20085;-76
2023/03/30 07:32:47;;;;;;;7.53;2.08;;;13.20;95.30;;;;;;5076815;28;20022;-75
2023/03/30 07:35:13;;;;;;;5.47;2.00;;;13.20;95.30;;;;;;5075824;28;20055;-75
2023/03/30 07:37:39;;;;;;;6.97;2.13;;;13.20;95.20;;;;;;5075672;28;20032;-76
2023/03/30 07:40:09;;;;;;;7.25;2.38;;;13.30;95.20;;;;;;5076668;28;20051;-76
2023/03/30 07:42:35;;;;;;;4.80;1.50;;;13.30;95.00;;;;;;5076773;28;20029;-75
2023/03/30 07:45:02;;;;;;;4.90;1.80;;;13.40;95.00;;;;;;5076253;28;20098;-76
2023/03/30 07:47:28;;;;;;;7.07;1.90;;;13.50;94.80;;;;;;5076563;28;20036;-76
2023/03/30 07:49:54;;;;;;;3.10;1.77;;;13.60;94.80;;;;;;5075559;28;20017;-75
2023/03/30 07:52:19;;;;;;;5.43;1.83;;;13.60;94.00;;;;;;5076449;28;20127;-75
2023/03/30 07:54:45;;;;;;;5.47;1.88;;;13.70;93.50;;;;;;5076398;28;20025;-75
2023/03/30 07:57:11;;;;;;;7.15;1.60;;;13.80;93.70;;;;;;5075331;28;20061;-75
2023/03/30 07:59:37;;;;;;;5.43;1.52;;;13.90;93.10;;;;;;5076444;28;20044;-75
2023/03/30 08:02:05;;;;;;;5.43;1.27;;;14.00;93.10;;;;;;5058578;28;20093;-75
2023/03/30 08:04:31;;;;;;;3.42;1.88;;;14.00;93.00;;;;;;5075384;28;20032;-76
2023/03/30 08:06:57;;;;;;;6.40;1.65;;;14.10;93.10;;;;;;5076123;28;20059;-75
2023/03/30 08:09:23;;;;;;;7.68;1.95;;;14.00;92.40;;;;;;5076113;28;20028;-76
2023/03/30 08:11:49;;;;;;;3.90;1.80;;;14.00;92.50;;;;;;5058556;28;20025;-76
2023/03/30 08:14:15;;;;;;;7.70;1.92;;;14.00;92.50;;;;;;5074990;28;20033;-75
2023/03/30 08:16:40;;;;;;;4.53;1.80;;;14.00;92.40;;;;;;5074990;28;20040;-75
2023/03/30 08:19:07;;;;;;;7.80;1.83;;;14.00;92.30;;;;;;5074712;28;20041;-76
2023/03/30 08:21:32;;;;;;;6.47;1.75;;;14.00;92.50;;;;;;5076037;28;20056;-75
2023/03/30 08:23:58;;;;;;;5.25;1.23;;;14.00;92.10;;;;;;5074860;28;20029;-74
2023/03/30 08:26:25;;;;;;;5.93;1.80;;;14.00;92.20;;;;;;5075866;28;20482;-75
2023/03/30 08:28:51;;;;;;;13.48;2.47;;;14.10;92.30;;;;;;5074752;28;20020;-75
2023/03/30 08:31:17;;;;;;;8.02;1.95;;;14.10;92.10;;;;;;5074747;28;20075;-75
2023/03/30 08:33:43;;;;;;;7.32;2.20;;;14.10;92.10;;;;;;5075686;28;20037;-75
2023/03/30 08:36:11;;;;;;;9.05;2.08;;;14.20;92.20;;;;;;5075579;28;20436;-75
2023/03/30 08:38:37;;;;;;;9.10;1.98;;;14.20;92.00;;;;;;5075607;28;20025;-75
2023/03/30 08:41:27;;;;;;;7.47;2.63;;;14.20;91.80;;;;;;5074536;28;20505;-76
2023/03/30 08:44:11;;;;;;;7.28;2.08;;;14.20;91.70;;;;;;5075352;28;20047;-75
2023/03/30 08:46:37;;;;;;;7.88;2.08;;;14.20;91.90;;;;;;5075586;28;20032;-75
2023/03/30 08:49:11;;;;;;;7.20;2.17;;;14.20;91.60;;;;;;5075405;28;20029;-75
2023/03/30 08:51:38;;;;;;;9.88;2.40;;;14.20;91.30;;;;;;5075388;28;20025;-75
2023/03/30 08:54:05;;;;;;;6.20;2.20;;;14.20;91.20;;;;;;5075295;28;20029;-75
2023/03/30 08:56:50;;;;;;;8.00;2.38;;;14.20;90.70;;;;;;5075215;28;20056;-76
2023/03/30 08:59:21;;;;;;;9.55;2.70;;;14.30;90.80;;;;;;5075216;28;20052;-75
2023/03/30 09:01:55;;;;;;;4.60;2.30;;;14.30;90.80;;;;;;5075233;28;20028;-76
2023/03/30 09:05:00;;;;;;;8.75;3.42;;;14.30;91.00;;;;;;5075042;28;20363;-75
2023/03/30 09:07:32;;;;;;;6.68;2.05;;;14.30;90.60;;;;;;5074133;28;20025;-74
2023/03/30 09:09:58;;;;;;;9.57;2.63;;;14.50;90.60;;;;;;5075005;28;20032;-75
2023/03/30 09:12:34;;;;;;;6.55;2.40;;;14.60;90.50;;;;;;5074909;28;20033;-75
2023/03/30 09:15:21;;;;;;;8.90;2.05;;;14.70;88.70;;;;;;5074927;28;20048;-74
2023/03/30 09:17:59;;;;;;;7.75;2.40;;;14.70;87.40;;;;;;5075013;28;20028;-75
2023/03/30 09:20:31;;;;;;;7.72;2.30;;;14.70;87.40;;;;;;5073736;28;20021;-75
2023/03/30 09:22:59;;;;;;;7.13;2.30;;;14.80;88.40;;;;;;5074916;28;20017;-74
2023/03/30 09:26:01;;;;;;;10.27;2.78;;;14.80;88.30;;;;;;5074695;28;20025;-75
2023/03/30 09:28:37;;;;;;;6.97;2.38;;;14.80;87.10;;;;;;5033000;28;20033;-76
2023/03/30 09:31:12;;;;;;;9.77;2.40;;;14.90;87.50;;;;;;5073946;28;20045;-76
2023/03/30 09:33:45;;;;;;;8.48;2.42;;;15.00;86.10;;;;;;5074681;28;20028;-74
2023/03/30 09:36:25;;;;;;;7.47;2.30;;;15.00;85.20;;;;;;5074556;28;20549;-75
2023/03/30 09:38:51;;;;;;;11.52;2.85;;;14.90;83.70;;;;;;5073678;28;20025;-75
2023/03/30 09:41:36;;;;;;;5.88;1.77;;;14.80;84.90;;;;;;5073411;28;20024;-75
2023/03/30 09:44:02;;;;;;;8.90;2.58;;;14.80;83.90;;;;;;5074205;28;20041;-74
2023/03/30 09:46:28;;;;;;;10.43;2.83;;;14.70;83.90;;;;;;5056761;28;20045;-76
2023/03/30 09:49:10;;;;;;;8.55;2.70;;;14.70;84.40;;;;;;5074216;28;20021;-75
2023/03/30 09:51:35;;;;;;;7.65;2.33;;;14.70;84.10;;;;;;5073431;28;20470;-76
2023/03/30 09:54:05;;;;;;;8.57;2.42;;;14.70;84.60;;;;;;5073146;28;20029;-76
2023/03/30 09:56:33;;;;;;;8.25;2.40;;;14.70;84.60;;;;;;5074055;28;20021;-75
2023/03/30 09:59:36;;;;;;;9.57;2.65;;;14.80;83.70;;;;;;5074003;28;20059;-75
2023/03/30 10:02:17;;;;;;;12.18;2.92;;;15.00;83.90;;;;;;5073256;28;20035;-75
2023/03/30 10:04:52;;;;;;;6.65;2.97;;;15.10;83.20;;;;;;5072870;28;20033;-75
2023/03/30 10:07:57;;;;;;;11.15;2.78;;;15.20;82.60;;;;;;5072876;28;20025;-75
2023/03/30 10:10:35;;;;;;;11.07;3.00;;;15.10;82.10;;;;;;5033698;28;20040;-75
2023/03/30 10:13:14;;;;;;;7.22;2.50;;;15.00;83.10;;;;;;5074021;28;20057;-75
2023/03/30 10:15:43;;;;;;;16.77;2.97;;;15.10;82.40;;;;;;5072885;28;20104;-75
2023/03/30 10:18:18;;;;;;;8.07;2.85;;;15.20;82.50;;;;;;5073717;28;20025;-75
2023/03/30 10:20:52;;;;;;;5.53;1.70;;;15.30;82.00;;;;;;5073658;28;20025;-75
2023/03/30 10:23:21;;;;;;;7.68;2.25;;;15.40;80.50;;;;;;5073587;28;20029;-74
2023/03/30 10:25:50;;;;;;;6.82;2.10;;;15.30;79.60;;;;;;5073601;28;20021;-76
2023/03/30 10:28:25;;;;;;;5.82;2.15;;;15.30;80.10;;;;;;5073440;28;20024;-75
2023/03/30 10:30:56;;;;;;;7.30;2.28;;;15.30;80.10;;;;;;5073550;28;20482;-75
2023/03/30 10:33:23;;;;;;;15.30;3.20;;;15.30;81.00;;;;;;5073527;28;20028;-74
2023/03/30 10:35:55;;;;;;;10.57;2.30;;;15.30;80.60;;;;;;5072479;28;20047;-74
2023/03/30 10:38:22;;;;;;;8.90;2.85;;;15.20;79.80;;;;;;5073320;28;20020;-75
2023/03/30 10:40:54;;;;;;;11.30;2.70;;;15.20;80.70;;;;;;5073323;28;20025;-75
2023/03/30 10:43:26;;;;;;;11.38;2.70;;;15.20;81.20;;;;;;5072350;28;20036;-74
2023/03/30 10:45:55;;;;;;;12.98;3.30;;;15.30;81.30;;;;;;5073072;28;20505;-74
2023/03/30 10:48:58;;;;;;;8.18;2.08;;;15.50;81.00;;;;;;5072197;28;20473;-74
2023/03/30 10:52:10;;;;;;;14.30;2.88;;;15.60;79.20;;;;;;5073419;28;20027;-74
2023/03/30 10:54:50;;;;;;;10.23;2.33;;;15.70;80.20;;;;;;5042490;28;20101;-75
2023/03/30 10:57:19;;;;;;;8.68;2.45;;;15.90;79.70;;;;;;5073205;28;20068;-75
2023/03/30 10:59:57;;;;;;;7.43;2.55;;;16.10;80.60;;;;;;5073144;28;20021;-74
2023/03/30 11:02:51;;;;;;;9.93;2.67;;;16.10;79.60;;;;;;5072157;28;20035;-76
2023/03/30 11:05:21;;;;;;;16.27;2.63;;;16.10;76.80;;;;;;5073080;28;20028;-76
2023/03/30 11:08:14;;;;;;;6.72;2.38;;;16.10;77.10;;;;;;5073079;28;20017;-75
2023/03/30 11:10:46;;;;;;;9.05;2.58;;;16.10;76.20;;;;;;5073101;28;20044;-75
2023/03/30 11:13:30;;;;;;;7.85;2.90;;;16.10;75.70;;;;;;5073124;28;20040;-75
2023/03/30 11:16:02;;;;;;;9.60;2.58;;;16.00;75.60;;;;;;5072977;28;20021;-75
2023/03/30 11:18:34;;;;;;;12.00;3.10;;;15.90;75.50;;;;;;5073026;28;20406;-75
2023/03/30 11:21:06;;;;;;;12.98;3.35;;;15.90;77.20;;;;;;5072958;28;20032;-76
2023/03/30 11:23:35;;;;;;;12.88;3.20;;;16.10;77.40;;;;;;5071867;28;20052;-74
2023/03/30 11:26:11;;;;;;;13.75;3.22;;;16.20;77.00;;;;;;5071814;28;20025;-75
2023/03/30 11:28:53;;;;;;;8.50;2.60;;;16.40;76.90;;;;;;5072039;28;20014;-76
2023/03/30 11:31:39;;;;;;;7.00;1.95;;;16.40;76.90;;;;;;5072948;28;20029;-76
2023/03/30 11:34:23;;;;;;;8.15;2.15;;;16.40;75.90;;;;;;5072952;28;20029;-75
2023/03/30 11:37:16;;;;;;;8.15;2.08;;;16.40;75.50;;;;;;5071801;28;20040;-76
2023/03/30 11:39:53;;;;;;;6.35;1.90;;;16.60;76.40;;;;;;5072796;28;20025;-75
2023/03/30 11:42:30;;;;;;;6.00;2.15;;;16.80;76.40;;;;;;5072792;28;20025;-75
2023/03/30 11:44:56;;;;;;;8.82;1.95;;;17.00;76.80;;;;;;5072423;28;20045;-75
2023/03/30 11:48:01;;;;;;;8.23;2.03;;;17.10;75.10;;;;;;5071617;28;20033;-75
2023/03/30 11:50:33;;;;;;;7.95;1.80;;;16.90;72.50;;;;;;5058568;28;20464;-75
2023/03/30 11:53:10;;;;;;;6.75;2.05;;;16.80;73.60;;;;;;5073049;28;20025;-75
2023/03/30 11:56:04;;;;;;;9.23;2.05;;;16.90;74.20;;;;;;5075415;28;20055;-76
2023/03/30 11:58:38;;;;;;;7.60;2.30;;;16.90;72.90;;;;;;5076414;28;20025;-74
2023/03/30 12:01:14;;;;;;;10.35;1.90;;;17.00;72.60;;;;;;5075373;28;20025;-74
2023/03/30 12:03:43;;;;;;;6.13;1.70;;;16.90;72.80;;;;;;5076229;28;20068;-75
2023/03/30 12:06:28;;;;;;;6.05;1.90;;;16.90;72.20;;;;;;5076235;28;20071;-76
2023/03/30 12:08:57;;;;;;;8.07;1.92;;;16.80;73.40;;;;;;5076202;28;20027;-74
2023/03/30 12:11:28;;;;;;;6.25;2.15;;;16.70;73.90;;;;;;5076099;28;20028;-76
2023/03/30 12:13:54;;;;;;;6.95;1.65;;;16.40;76.70;;;;;;5076207;28;20047;-75
2023/03/30 12:16:36;;;;;;;7.68;2.20;;;16.20;77.80;;;;;;5075008;28;20028;-74
2023/03/30 12:19:24;;;;;;;11.25;2.40;;;16.10;78.50;;;;;;5076043;28;20035;-75
2023/03/30 12:21:57;;;;;;;10.60;2.80;;;16.20;79.60;;;;;;5075919;28;20052;-75
2023/03/30 12:24:46;;;;;;;9.05;2.33;;;16.30;79.20;;;;;;5075877;28;20028;-76
2023/03/30 12:27:12;;;;;;;6.70;2.35;;;16.30;80.10;;;;;;5075800;28;20024;-76
2023/03/30 12:29:50;;;;;;;7.78;2.63;;;16.30;79.90;;;;;;5074704;28;20025;-76
2023/03/30 12:32:28;;;;;;;10.40;2.40;;;16.30;78.10;;;;;;5075729;28;20021;-76
2023/03/30 12:34:55;;;;;;;7.57;2.53;;;16.20;78.70;;;;;;5075846;28;20021;-76
2023/03/30 12:37:27;;;;;;;12.10;2.90;;;16.20;79.70;;;;;;5074625;28;20488;-75
2023/03/30 12:40:07;;;;;;;7.95;1.95;;;16.20;80.10;;;;;;5075680;28;20028;-76
2023/03/30 12:42:53;;;;;;;4.50;1.70;;;16.20;79.10;;;;;;5075591;28;20100;-76
2023/03/30 12:45:32;;;;;;;12.18;2.20;;;16.20;78.50;;;;;;5075433;28;20033;-76
2023/03/30 12:48:03;;;;;;;5.90;1.67;;;16.30;77.90;;;;;;5075511;28;20029;-75
2023/03/30 12:50:37;;;;;;;6.35;1.65;;;16.20;77.20;;;;;;5074293;28;20025;-75
2023/03/30 12:53:21;;;;;;;6.60;1.90;;;16.30;76.30;;;;;;5075332;28;20104;-76
2023/03/30 12:56:03;;;;;;;8.55;1.70;;;16.30;77.30;;;;;;5075273;28;20029;-76
2023/03/30 12:58:57;;;;;;;6.60;2.10;;;16.30;76.60;;;;;;5075318;28;20044;-76
2023/03/30 13:01:44;;;;;;;8.55;1.58;;;16.30;76.80;;;;;;5075240;28;20025;-76
2023/03/30 13:04:20;;;;;;;6.40;1.52;;;16.50;76.50;;;;;;5074868;28;20033;-76
2023/03/30 13:06:58;;;;;;;6.95;1.38;;;16.70;74.40;;;;;;5074670;28;20482;-76
2023/03/30 13:09:26;;;;;;;6.15;1.48;;;16.70;73.80;;;;;;5074153;28;20089;-75
2023/03/30 13:11:52;;;;;;;8.77;1.30;;;16.70;74.10;;;;;;5074971;28;20021;-77